This is the latest recevied weather packets stored in our database for station/object N5CSU. If no packets are shown the sender has not sent any weather packets the latest 10 day(s).
| Time | Temp. | Humidity | Pressure | Rain* | Wind** | Luminosity | Snow |
|---|---|---|---|---|---|---|---|
| 1777870104 | 18.89° C | 63% | 1016.6 hPa | 0 mm | - | 0 W/m² | - |
| 1777869801 | 18.89° C | 63% | 1016.6 hPa | 0 mm | - | 0 W/m² | - |
| 1777869498 | 18.89° C | 63% | 1016.5 hPa | 0 mm | - | 0 W/m² | - |
| 1777869195 | 18.89° C | 63% | 1016.6 hPa | 0 mm | - | 0 W/m² | - |
| 1777868893 | 18.89° C | 62% | 1016.6 hPa | 0 mm | - | 0 W/m² | - |
| 1777868589 | 18.89° C | 62% | 1016.5 hPa | 0 mm | - | 0 W/m² | - |
| 1777868285 | 18.89° C | 62% | 1016.4 hPa | 0 mm | - | 0 W/m² | - |
| 1777867981 | 18.89° C | 62% | 1016.6 hPa | 0 mm | - | 0 W/m² | - |
| 1777867678 | 18.89° C | 62% | 1016.4 hPa | 0 mm | - | 0 W/m² | - |
| 1777867375 | 18.89° C | 62% | 1016.6 hPa | 0 mm | - | 0 W/m² | - |
| 1777867071 | 18.89° C | 61% | 1016.4 hPa | 0 mm | - | 0 W/m² | - |
| 1777866768 | 19.44° C | 60% | 1016.5 hPa | 0 mm | - | 0 W/m² | - |
| 1777866466 | 19.44° C | 60% | 1016.5 hPa | 0 mm | - | 0 W/m² | - |
| 1777865558 | 20° C | 58% | 1016.6 hPa | 0 mm | - | 0 W/m² | - |
| 1777865255 | 20° C | 57% | 1016.5 hPa | 0 mm | - | 0 W/m² | - |
| 1777864952 | 20° C | 57% | 1016.3 hPa | 0 mm | - | 0 W/m² | - |
| 1777847674 | 26.67° C | 36% | 1016.4 hPa | 0 mm | - | 8 W/m² | - |
| 1777847369 | 26.67° C | 38% | 1016.5 hPa | 0 mm | - | 8 W/m² | - |
| 1777847068 | 26.67° C | 39% | 1016.4 hPa | 0 mm | - | 6 W/m² | - |
| 1777846766 | 26.67° C | 40% | 1016.6 hPa | 0 mm | - | 10 W/m² | - |
| 1777846464 | 26.67° C | 37% | 1016.6 hPa | 0 mm | - | 9 W/m² | - |
| 1777844343 | 26.67° C | 36% | 1017 hPa | 0 mm | - | 29 W/m² | - |
| 1777844041 | 27.22° C | 38% | 1017.1 hPa | 0 mm | - | 36 W/m² | - |
| 1777841613 | 26.67° C | 37% | 1017.6 hPa | 0 mm | - | 15 W/m² | - |
| 1777840704 | 27.22° C | 38% | 1017.9 hPa | 0 mm | - | 9 W/m² | - |
* Rain latest hour (hover to see other rain measurements)
** Current wind speed in m/s (hover to see current wind gust speed)